Rome Urbe Air Force Base, Italy

2:21 PM CET on January 26, 2015 (GMT +0100)
IRMROMA12 | Change Station
CLOSE
Current Station
Personal Weather Station
Location: Roma / Trieste-Salario, RM
Elevation: 148 ft
Nearby Weather Stations
Active Advisory: Wind

Elev 148 ft 41.94 °N, 12.51 °E | Updated 21 minutes ago

Partly Cloudy
Partly Cloudy
55.4 °F
Feels Like 55.4 °F
N
9.4
Wind Variable Wind from North
Gusts 13.6 mph

Today
High -- | Low -- °F
--% Chance of Precip.
Yesterday
High -- | Low -- °F
Precip. -- in
7:28 AM 5:16 PM
Waxing Crescent, 43% visible
Pressure 30.01 in
Visibility 6.2 miles
Clouds Few 4000 ft
Dew Point 28 °F
Humidity 35%
Rainfall 0.00 in
Snow Depth Not available.
UV 2 out of 12
Pollen Not available.
Air Quality Not available.
Flu Activity Not available.
METAR LIRG 261255Z 28004KT 9999 FEW040 15/M00 Q1016 RMK FEW MON NE LIB NC VIS MIN 9999 BLU

More Conditions Fewer Conditions

Pressure 30.01 in
Visibility 6.2 miles
Clouds Few 4000 ft
Dew Point 28 °F
Humidity 35%
Rainfall 0.00 in
Snow Depth Not available.
UV 2 out of 12
Pollen Not available.
Air Quality Not available.
Flu Activity Not available.
METAR LIRG 261255Z 28004KT 9999 FEW040 15/M00 Q1016 RMK FEW MON NE LIB NC VIS MIN 9999 BLU

More Conditions Fewer Conditions

10-Day Weather Forecast

Almanac

Astronomy

Jan. 26, 2015 Rise Set
Actual Time
Civil Twilight
Nautical Twilight
Astronomical Twilight
Moon
Length of Visible Light
Length of Day
Tomorrow will be .
, % of the Moon is Illuminated

Today's Extremes

Country Highs Country Lows

Community

WunderPhotos

Upload Photos

1,790,194 photos uploaded!

WunderBlogs® & News

Nearby

Air Quality

  Air Quality AQ Index Pollutant
Not available.

Snow Depth

Station Depth Elevation

Earthquake Activity

City Distance Mag. Time & Date
Minimum magnitude displayed is 2.5.

Coastal Water Temperatures

Place Temperature

Nearby Weather Stations